Time;durP1;ratioP1;P1;durP2;ratioP2;P2;SDS_P1;SDS_P2;PMS_P1;PMS_P2;Temp;Humidity;BMP_temperature;BMP_pressure;BME280_temperature;BME280_humidity;BME280_pressure;Samples;Min_cycle;Max_cycle;Signal;HPM_P1;HPM_P2
2022/06/12 00:00:21;;;;;;;;;;;;;;;-142.75;100.00;77349.88;5009161;28;19928;-72
2022/06/12 00:02:46;;;;;;;;;;;;;;;-142.75;100.00;77345.94;5009364;28;19925;-71
2022/06/12 00:05:12;;;;;;;;;;;;;;;-142.75;100.00;77349.88;5024277;28;19917;-73
2022/06/12 00:07:37;;;;;;;;;;;;;;;-142.75;100.00;77345.94;5011714;28;19917;-72
2022/06/12 00:10:03;;;;;;;;;;;;;;;-142.75;100.00;77338.06;5028025;28;19925;-72
2022/06/12 00:12:28;;;;;;;;;;;;;;;-142.75;100.00;77338.06;5013331;28;19960;-72
2022/06/12 00:14:55;;;;;;;;;;;;;;;-142.75;100.00;77338.06;5013156;28;21001;-73
2022/06/12 00:17:20;;;;;;;;;;;;;;;-142.75;100.00;77345.94;5013211;28;19921;-69
2022/06/12 00:19:47;;;;;;;;;;;;;;;-142.75;100.00;77351.84;5027971;28;19924;-72
2022/06/12 00:22:13;;;;;;;;;;;;;;;-142.75;100.00;77343.97;5028276;28;19918;-72
2022/06/12 00:24:38;;;;;;;;;;;;;;;-142.75;100.00;77349.88;5041680;23;19926;-68
2022/06/12 00:27:04;;;;;;;;;;;;;;;-142.75;100.00;77340.03;5030706;28;19956;-70
2022/06/12 00:29:30;;;;;;;;;;;;;;;-142.75;100.00;77328.22;5031139;28;19925;-69
2022/06/12 00:32:05;;;;;;;;;;;;;;;-142.75;100.00;77338.06;5016727;28;19956;-69
2022/06/12 00:34:32;;;;;;;;;;;;;;;-142.75;100.00;77338.06;5031531;28;19963;-69
2022/06/12 00:36:58;;;;;;;;;;;;;;;-142.75;100.00;77342.00;5031765;28;19917;-69
2022/06/12 00:39:23;;;;;;;;;;;;;;;-142.75;100.00;77342.00;5032260;28;19924;-69
2022/06/12 00:41:50;;;;;;;;;;;;;;;-142.75;100.00;77355.78;5023623;28;20004;-69
2022/06/12 00:44:17;;;;;;;;;;;;;;;-142.75;100.00;77363.66;5007410;28;19953;-69
2022/06/12 00:46:42;;;;;;;;;;;;;;;-142.75;100.00;77373.50;5012724;28;19926;-69
2022/06/12 00:49:13;;;;;;;;;;;;;;;-142.75;100.00;77369.56;5012310;28;19975;-69
2022/06/12 00:51:39;;;;;;;;;;;;;;;-142.75;100.00;77365.63;5012554;28;20414;-69
2022/06/12 00:54:06;;;;;;;;;;;;;;;-142.75;100.00;77377.44;5012233;28;19924;-69
2022/06/12 00:56:34;;;;;;;;;;;;;;;-142.75;100.00;77377.44;5022308;28;19970;-69
2022/06/12 00:59:02;;;;;;;;;;;;;;;-142.75;100.00;77373.50;5010869;28;19918;-69
2022/06/12 01:01:29;;;;;;;;;;;;;;;-142.75;100.00;77383.34;5012233;28;19971;-69
2022/06/12 01:06:38;;;;;;;;;;;;;;;-142.75;100.00;77381.38;5031560;28;20055;-69
2022/06/12 01:09:05;;;;;;;;;;;;;;;-142.75;100.00;77377.44;5030954;28;20400;-69
2022/06/12 01:11:31;;;;;;;;;;;;;;;-142.75;100.00;77383.34;5031583;28;19917;-69
2022/06/12 01:13:56;;;;;;;;;;;;;;;-142.75;100.00;77381.38;5031601;28;19917;-69
2022/06/12 01:16:21;;;;;;;;;;;;;;;-142.75;100.00;77391.22;5031699;28;19917;-69
2022/06/12 01:18:49;;;;;;;;;;;;;;;-142.75;100.00;77391.22;5030179;28;20501;-69
2022/06/12 01:21:17;;;;;;;;;;;;;;;-142.75;100.00;77391.22;5029622;28;20371;-69
2022/06/12 01:23:45;;;;;;;;;;;;;;;-142.75;100.00;77393.19;5030438;28;20337;-69
2022/06/12 01:26:20;;;;;;;;;;;;;;;-142.75;100.00;77397.13;5030217;28;19971;-69
2022/06/12 01:28:48;;;;;;;;;;;;;;;-142.75;100.00;77393.19;5031116;28;20539;-69
2022/06/12 01:31:25;;;;;;;;;;;;;;;-142.75;100.00;77397.13;5031518;28;19921;-71
2022/06/12 01:34:13;;;;;;;;;;;;;;;-142.75;100.00;77403.03;5031476;28;19924;-69
2022/06/12 01:36:50;;;;;;;;;;;;;;;-142.75;100.00;77403.03;5020210;28;19922;-69
2022/06/12 01:39:23;;;;;;;;;;;;;;;-142.75;100.00;77399.09;5010769;28;19925;-69
2022/06/12 01:41:48;;;;;;;;;;;;;;;-142.75;100.00;77401.06;5011640;28;19918;-69
2022/06/12 01:44:18;;;;;;;;;;;;;;;-142.75;100.00;77403.03;5011604;28;19918;-69
2022/06/12 01:46:50;;;;;;;;;;;;;;;-142.75;100.00;77403.03;5011622;28;19922;-69
2022/06/12 01:49:24;;;;;;;;;;;;;;;-142.75;100.00;77408.94;5011241;28;20379;-69
2022/06/12 01:51:52;;;;;;;;;;;;;;;-142.75;100.00;77416.81;5022611;28;19932;-69
2022/06/12 01:54:23;;;;;;;;;;;;;;;-142.75;100.00;77416.81;5031360;28;20300;-69
2022/06/12 01:57:02;;;;;;;;;;;;;;;-142.75;100.00;77424.69;5021008;28;20411;-69
2022/06/12 01:59:49;;;;;;;;;;;;;;;-142.75;100.00;77428.63;5011158;28;19917;-69
2022/06/12 02:02:18;;;;;;;;;;;;;;;-142.75;100.00;77428.63;5011280;28;19992;-69
2022/06/12 02:04:55;;;;;;;;;;;;;;;-142.75;100.00;77432.56;5011257;28;20354;-69
2022/06/12 02:07:20;;;;;;;;;;;;;;;-142.75;100.00;77432.56;5012131;28;19924;-69
2022/06/12 02:09:49;;;;;;;;;;;;;;;-142.75;100.00;77436.50;5010908;28;19930;-69
2022/06/12 02:15:06;;;;;;;;;;;;;;;-142.75;100.00;77440.44;5011358;28;19933;-69
2022/06/12 02:17:34;;;;;;;;;;;;;;;-142.75;100.00;77442.41;5010000;28;19917;-69
2022/06/12 02:20:00;;;;;;;;;;;;;;;-142.75;100.00;77434.53;5010719;28;19957;-69
2022/06/12 02:22:27;;;;;;;;;;;;;;;-142.75;100.00;77432.56;5010696;28;19936;-69
2022/06/12 02:24:55;;;;;;;;;;;;;;;-142.75;100.00;77430.59;5010551;28;19921;-69
2022/06/12 02:27:23;;;;;;;;;;;;;;;-142.75;100.00;77432.56;5010799;28;19917;-69
2022/06/12 02:29:55;;;;;;;;;;;;;;;-142.75;100.00;77438.47;5009976;28;19921;-69
2022/06/12 02:32:23;;;;;;;;;;;;;;;-142.75;100.00;77440.44;5009331;28;19932;-68
2022/06/12 02:35:01;;;;;;;;;;;;;;;-142.75;100.00;77440.44;5010659;28;19917;-69
2022/06/12 02:37:30;;;;;;;;;;;;;;;-142.75;100.00;77436.50;5011404;28;20004;-69
2022/06/12 02:40:00;;;;;;;;;;;;;;;-142.75;100.00;77446.34;5024907;28;19975;-69
2022/06/12 02:42:28;;;;;;;;;;;;;;;-142.75;100.00;77448.34;5030064;28;19925;-69
2022/06/12 02:44:58;;;;;;;;;;;;;;;-142.75;100.00;77452.25;5030074;28;19967;-69
2022/06/12 02:47:25;;;;;;;;;;;;;;;-142.75;100.00;77458.16;5028510;28;19921;-69
2022/06/12 02:49:52;;;;;;;;;;;;;;;-142.75;100.00;77456.22;5029658;28;19921;-69
2022/06/12 02:52:32;;;;;;;;;;;;;;;-142.75;100.00;77456.22;5030045;28;19921;-68
2022/06/12 02:55:10;;;;;;;;;;;;;;;-142.75;100.00;77454.25;5029936;28;19917;-69
2022/06/12 02:57:39;;;;;;;;;;;;;;;-142.75;100.00;77446.34;5029814;28;19917;-69
2022/06/12 03:00:18;;;;;;;;;;;;;;;-142.75;100.00;77442.41;5029503;28;20065;-69
2022/06/12 03:02:55;;;;;;;;;;;;;;;-142.75;100.00;77444.38;5028546;28;20003;-69
2022/06/12 03:05:21;;;;;;;;;;;;;;;-142.75;100.00;77460.13;5019810;28;19917;-69
2022/06/12 03:07:47;;;;;;;;;;;;;;;-142.75;100.00;77450.28;5011023;28;20402;-69
2022/06/12 03:10:15;;;;;;;;;;;;;;;-142.75;100.00;77446.34;5009920;28;19921;-69
2022/06/12 03:12:40;;;;;;;;;;;;;;;-142.75;100.00;77452.25;5009756;28;19926;-69
2022/06/12 03:15:08;;;;;;;;;;;;;;;-142.75;100.00;77446.34;5009922;28;19924;-69
2022/06/12 03:17:33;;;;;;;;;;;;;;;-142.75;100.00;77460.13;5009907;28;19929;-69
2022/06/12 03:19:58;;;;;;;;;;;;;;;-142.75;100.00;77456.22;5009704;28;19918;-69
2022/06/12 03:22:40;;;;;;;;;;;;;;;-142.75;100.00;77456.22;5009934;28;19925;-69
2022/06/12 03:25:06;;;;;;;;;;;;;;;-142.75;100.00;77460.13;5008369;28;19922;-69
2022/06/12 03:27:43;;;;;;;;;;;;;;;-142.75;100.00;77466.03;5008557;28;20406;-68
2022/06/12 03:30:13;;;;;;;;;;;;;;;-142.75;100.00;77471.97;5009708;28;20419;-68
2022/06/12 03:32:53;;;;;;;;;;;;;;;-142.75;100.00;77477.88;5008513;28;19917;-69
2022/06/12 03:35:34;;;;;;;;;;;;;;;-142.75;100.00;77473.94;5015751;28;19963;-68
2022/06/12 03:38:22;;;;;;;;;;;;;;;-142.75;100.00;77470.00;5029789;28;19924;-69
2022/06/12 03:40:47;;;;;;;;;;;;;;;-142.75;100.00;77468.03;5029321;28;20000;-69
2022/06/12 03:43:25;;;;;;;;;;;;;;;-142.75;100.00;77468.03;5028346;28;20382;-69
2022/06/12 03:46:08;;;;;;;;;;;;;;;-142.75;100.00;77475.91;5028859;28;19933;-68
2022/06/12 03:48:41;;;;;;;;;;;;;;;-142.75;100.00;77468.03;5028814;28;19925;-69
2022/06/12 03:51:20;;;;;;;;;;;;;;;-142.75;100.00;77473.94;5029219;28;19917;-69
2022/06/12 03:54:05;;;;;;;;;;;;;;;-142.75;100.00;77468.03;5016163;28;20389;-68
2022/06/12 03:59:32;;;;;;;;;;;;;;;-142.75;100.00;77452.25;5009271;28;19925;-68
2022/06/12 04:01:58;;;;;;;;;;;;;;;-142.75;100.00;77448.34;5008295;28;20367;-68
2022/06/12 04:04:24;;;;;;;;;;;;;;;-142.75;100.00;77448.34;5009384;28;19928;-69
2022/06/12 04:06:51;;;;;;;;;;;;;;;-142.75;100.00;77452.25;5009377;28;19972;-68
2022/06/12 04:09:19;;;;;;;;;;;;;;;-142.75;100.00;77444.38;5009849;28;19921;-68
2022/06/12 04:11:50;;;;;;;;;;;;;;;-142.75;100.00;77452.25;5009357;28;19964;-69
2022/06/12 04:14:17;;;;;;;;;;;;;;;-142.75;100.00;77456.22;5007566;28;19928;-68
2022/06/12 04:16:52;;;;;;;;;;;;;;;-142.75;100.00;77462.13;5005991;28;19918;-69
2022/06/12 04:19:21;;;;;;;;;;;;;;;-142.75;100.00;77458.16;5020997;28;19952;-69
2022/06/12 04:21:47;;;;;;;;;;;;;;;-142.75;100.00;77442.41;5028677;28;19917;-68
2022/06/12 04:24:16;;;;;;;;;;;;;;;-142.75;100.00;77446.34;5028521;28;19925;-68
2022/06/12 04:26:41;;;;;;;;;;;;;;;-142.75;100.00;77440.44;5028640;28;19986;-68
2022/06/12 04:29:13;;;;;;;;;;;;;;;-142.75;100.00;77432.56;5028422;28;20383;-68
2022/06/12 04:31:41;;;;;;;;;;;;;;;-142.75;100.00;77432.56;5028791;28;20430;-68
2022/06/12 04:34:12;;;;;;;;;;;;;;;-142.75;100.00;77422.72;5027189;28;19960;-68
2022/06/12 04:36:38;;;;;;;;;;;;;;;-142.75;100.00;77422.72;5028605;28;20004;-68
2022/06/12 04:39:04;;;;;;;;;;;;;;;-142.75;100.00;77416.81;5029378;28;19972;-69
2022/06/12 04:41:31;;;;;;;;;;;;;;;-142.75;100.00;77406.97;5027378;28;19925;-68
2022/06/12 04:43:56;;;;;;;;;;;;;;;-142.75;100.00;77395.16;5027293;28;19924;-68
2022/06/12 04:46:22;;;;;;;;;;;;;;;-142.75;100.00;77393.19;5018499;28;20288;-68
2022/06/12 04:48:49;;;;;;;;;;;;;;;-142.75;100.00;77381.38;5008703;28;20402;-69
2022/06/12 04:51:15;;;;;;;;;;;;;;;-142.75;100.00;77379.41;5007466;28;19944;-69
2022/06/12 04:53:41;;;;;;;;;;;;;;;-142.75;100.00;77369.56;5008540;28;20380;-69
2022/06/12 04:56:08;;;;;;;;;;;;;;;-142.75;100.00;77349.88;5011604;28;19925;-68
2022/06/12 04:58:34;;;;;;;;;;;;;;;-142.75;100.00;77349.88;5012269;28;19925;-68
2022/06/12 05:00:59;;;;;;;;;;;;;;;-142.75;100.00;77330.19;5012363;28;19980;-69
2022/06/12 05:03:24;;;;;;;;;;;;;;;-142.75;100.00;77318.38;5011155;28;19918;-68
2022/06/12 05:05:49;;;;;;;;;;;;;;;-142.75;100.00;77302.63;5011039;28;20447;-68
2022/06/12 05:08:15;;;;;;;;;;;;;;;-142.75;100.00;77290.81;5012981;28;19921;-68
2022/06/12 05:10:41;;;;;;;;;;;;;;;-142.75;100.00;77275.06;5011027;28;19921;-69
2022/06/12 05:13:06;;;;;;;;;;;;;;;-142.75;100.00;77275.06;5021491;28;20361;-68
2022/06/12 05:15:31;;;;;;;;;;;;;;;-142.75;100.00;77255.38;5031701;28;19917;-68
2022/06/12 05:17:56;;;;;;;;;;;;;;;-142.75;100.00;77245.53;5031515;28;20329;-68
2022/06/12 05:20:24;;;;;;;;;;;;;;;-142.75;100.00;77235.69;5031508;28;19917;-68
2022/06/12 05:22:50;;;;;;;;;;;;;;;-142.75;100.00;77231.75;5031683;28;19917;-69
2022/06/12 05:25:16;;;;;;;;;;;;;;;-142.75;100.00;77227.81;5031432;28;20414;-69
2022/06/12 05:27:42;;;;;;;;;;;;;;;-142.75;100.00;77219.94;5030343;28;19917;-68
2022/06/12 05:30:07;;;;;;;;;;;;;;;-142.75;100.00;77212.06;5031059;28;19923;-68
2022/06/12 05:32:33;;;;;;;;;;;;;;;-142.75;100.00;77196.31;5031535;28;19920;-68
2022/06/12 05:34:58;;;;;;;;;;;;;;;-142.75;100.00;77184.50;5025090;28;20398;-69
2022/06/12 05:37:24;;;;;;;;;;;;;;;-142.75;100.00;77174.66;5012063;28;19917;-69
2022/06/12 05:39:49;;;;;;;;;;;;;;;-142.75;100.00;77164.81;5012275;28;19921;-69
2022/06/12 05:42:14;;;;;;;;;;;;;;;-142.75;100.00;77160.88;5010337;28;20000;-68
2022/06/12 05:44:40;;;;;;;;;;;;;;;-142.75;100.00;77143.16;5011971;28;19918;-69
2022/06/12 05:47:05;;;;;;;;;;;;;;;-142.75;100.00;77133.31;5025010;28;19996;-69
2022/06/12 05:49:31;;;;;;;;;;;;;;;-142.75;100.00;77129.38;5011269;28;19969;-69
2022/06/12 05:51:56;;;;;;;;;;;;;;;-142.75;100.00;77117.56;5025469;28;20404;-69
2022/06/12 05:54:21;;;;;;;;;;;;;;;-142.75;100.00;77113.63;5016042;28;19925;-69
2022/06/12 05:56:47;;;;;;;;;;;;;;;-142.75;100.00;77097.88;5014101;28;19992;-68
2022/06/12 05:59:12;;;;;;;;;;;;;;;-142.75;100.00;77090.00;5009868;28;19924;-69
2022/06/12 06:01:39;;;;;;;;;;;;;;;-142.75;100.00;77078.19;5011248;28;19917;-69
2022/06/12 06:04:04;;;;;;;;;;;;;;;-142.75;100.00;77078.19;5011240;28;19918;-68
2022/06/12 06:06:31;;;;;;;;;;;;;;;-142.75;100.00;77074.25;5010409;28;19925;-69
2022/06/12 06:08:57;;;;;;;;;;;;;;;-142.75;100.00;77064.41;5011919;28;19928;-69
2022/06/12 06:11:22;;;;;;;;;;;;;;;-142.75;100.00;77064.41;5011196;28;19917;-68
2022/06/12 06:13:48;;;;;;;;;;;;;;;-142.75;100.00;77058.50;5016645;28;19917;-68
2022/06/12 06:16:13;;;;;;;;;;;;;;;-142.75;100.00;77046.69;5011081;28;20047;-68
2022/06/12 06:18:40;;;;;;;;;;;;;;;-142.75;100.00;77040.78;5010627;28;19917;-69
2022/06/12 06:21:06;;;;;;;;;;;;;;;-142.75;100.00;77034.88;5023954;28;19943;-68
2022/06/12 06:23:31;;;;;;;;;;;;;;;-142.75;100.00;77019.13;5029288;28;19916;-68
2022/06/12 06:25:56;;;;;;;;;;;;;;;-142.75;100.00;77001.41;5050374;22;19925;-68
2022/06/12 06:28:21;;;;;;;;;;;;;;;-142.75;100.00;76985.66;5028692;28;20039;-68
2022/06/12 06:30:46;;;;;;;;;;;;;;;-142.75;100.00;76964.00;5029908;28;19951;-68
2022/06/12 06:33:12;;;;;;;;;;;;;;;-142.75;100.00;76960.06;5030647;28;19920;-68
2022/06/12 06:35:37;;;;;;;;;;;;;;;-142.75;100.00;76960.06;5030354;28;19963;-68
2022/06/12 06:38:03;;;;;;;;;;;;;;;-142.75;100.00;76938.41;5031034;28;19917;-68
2022/06/12 06:40:29;;;;;;;;;;;;;;;-142.75;100.00;76944.31;5030510;28;19913;-68
2022/06/12 06:42:55;;;;;;;;;;;;;;;-142.75;100.00;76930.53;5030249;28;19941;-67
2022/06/12 06:48:05;;;;;;;;;;;;;;;-142.75;100.00;76930.53;5050130;28;19970;-68
2022/06/12 06:50:31;;;;;;;;;;;;;;;-142.75;100.00;76928.56;5049920;28;19924;-68
2022/06/12 06:52:57;;;;;;;;;;;;;;;-142.75;100.00;76920.69;5049927;28;19995;-68
2022/06/12 06:55:22;;;;;;;;;;;;;;;-142.75;100.00;76901.00;5049903;28;19967;-68
2022/06/12 06:57:48;;;;;;;;;;;;;;;-142.75;100.00;76897.06;5046625;28;20366;-68
2022/06/12 07:00:17;;;;;;;;;;;;;;;-142.75;100.00;76893.13;5029782;28;19926;-68
2022/06/12 07:02:42;;;;;;;;;;;;;;;-142.75;100.00;76877.38;5029757;28;19940;-68
2022/06/12 07:05:08;;;;;;;;;;;;;;;-142.75;100.00;76869.50;5029879;28;20406;-68
2022/06/12 07:07:34;;;;;;;;;;;;;;;-142.75;100.00;76855.72;5048461;28;20006;-68
2022/06/12 07:10:00;;;;;;;;;;;;;;;-142.75;100.00;76838.00;5050098;28;20381;-67
2022/06/12 07:12:25;;;;;;;;;;;;;;;-142.75;100.00;76836.03;5049389;28;19924;-68
2022/06/12 07:14:50;;;;;;;;;;;;;;;-142.75;100.00;76820.28;5049487;28;19960;-68
2022/06/12 07:17:16;;;;;;;;;;;;;;;-142.75;100.00;76812.41;5049087;28;19920;-67
2022/06/12 07:19:41;;;;;;;;;;;;;;;-142.75;100.00;76802.56;5049174;28;19963;-68
2022/06/12 07:22:06;;;;;;;;;;;;;;;-142.75;100.00;76773.06;5049304;28;19924;-68
2022/06/12 07:24:31;;;;;;;;;;;;;;;-142.75;100.00;76773.06;5049203;28;19917;-68
2022/06/12 07:26:57;;;;;;;;;;;;;;;-142.75;100.00;76765.19;5049262;28;19978;-68
2022/06/12 07:29:22;;;;;;;;;;;;;;;-142.75;100.00;76759.28;5049037;28;20361;-68
2022/06/12 07:31:48;;;;;;;;;;;;;;;-142.75;100.00;76759.28;5049374;28;20310;-68
2022/06/12 07:34:14;;;;;;;;;;;;;;;-142.75;100.00;76759.28;5029456;28;19925;-68
2022/06/12 07:36:40;;;;;;;;;;;;;;;-142.75;100.00;76745.50;5029360;28;19925;-68
2022/06/12 07:39:11;;;;;;;;;;;;;;;-142.75;100.00;76739.59;5030181;28;19925;-68
2022/06/12 07:41:37;;;;;;;;;;;;;;;-142.75;100.00;76719.91;5029305;28;20298;-67
2022/06/12 07:44:03;;;;;;;;;;;;;;;-142.75;100.00;76700.22;5029385;28;19917;-67
2022/06/12 07:46:28;;;;;;;;;;;;;;;-142.75;100.00;76670.69;5027743;28;19975;-67
2022/06/12 07:48:54;;;;;;;;;;;;;;;-142.75;100.00;76641.16;5036339;28;20370;-68
2022/06/12 07:51:20;;;;;;;;;;;;;;;-142.75;100.00;76629.34;5049019;28;20016;-68
2022/06/12 07:53:47;;;;;;;;;;;;;;;-142.75;100.00;76601.78;5047820;28;20290;-67
2022/06/12 07:56:12;;;;;;;;;;;;;;;-142.75;100.00;76588.00;5029782;28;20459;-67
2022/06/12 07:58:38;;;;;;;;;;;;;;;-142.75;100.00;76584.06;5028273;28;19917;-67
2022/06/12 08:01:06;;;;;;;;;;;;;;;-142.75;100.00;76562.41;5030100;28;20010;-67
2022/06/12 08:03:32;;;;;;;;;;;;;;;-142.75;100.00;76568.31;5029026;28;19924;-68
2022/06/12 08:05:57;;;;;;;;;;;;;;;-142.75;100.00;76550.59;5028884;28;19917;-68
2022/06/12 08:08:23;;;;;;;;;;;;;;;-142.75;100.00;76548.63;5029544;28;19924;-68
2022/06/12 08:10:49;;;;;;;;;;;;;;;-142.75;100.00;76572.25;5028911;28;20323;-68
2022/06/12 08:13:14;;;;;;;;;;;;;;;-142.75;100.00;76558.47;5029088;28;19917;-68
2022/06/12 08:15:44;;;;;;;;;;;;;;;-142.75;100.00;76564.38;5028991;28;19923;-68
2022/06/12 08:18:10;;;;;;;;;;;;;;;-142.75;100.00;76527.00;5028514;28;19917;-67
2022/06/12 08:20:36;;;;;;;;;;;;;;;-142.75;100.00;76509.28;5029296;28;19917;-68
2022/06/12 08:23:04;;;;;;;;;;;;;;;-142.75;100.00;76521.09;5028497;28;19925;-68
2022/06/12 08:25:31;;;;;;;;;;;;;;;-142.75;100.00;76493.53;5028417;28;19917;-67
2022/06/12 08:27:56;;;;;;;;;;;;;;;-142.75;100.00;76471.88;5028956;28;19983;-69
2022/06/12 08:30:22;;;;;;;;;;;;;;;-142.75;100.00;76460.06;5032901;28;19924;-68
2022/06/12 08:32:49;;;;;;;;;;;;;;;-142.75;100.00;76456.13;5034289;28;19971;-68
2022/06/12 08:35:26;;;;;;;;;;;;;;;-142.75;100.00;76440.38;5033952;28;20305;-68
2022/06/12 08:37:52;;;;;;;;;;;;;;;-142.75;100.00;76408.88;5033956;28;20007;-68
2022/06/12 08:40:24;;;;;;;;;;;;;;;-142.75;100.00;76436.44;5034481;28;20341;-69
2022/06/12 08:42:58;;;;;;;;;;;;;;;-142.75;100.00;76440.38;5033837;28;19921;-68
2022/06/12 08:45:26;;;;;;;;;;;;;;;-142.75;100.00;76475.81;5033954;28;20451;-68
2022/06/12 08:47:59;;;;;;;;;;;;;;;-142.75;100.00;76475.81;5033491;28;19940;-67
2022/06/12 08:50:41;;;;;;;;;;;;;;;-142.75;100.00;76471.88;5032248;28;19983;-68
2022/06/12 08:53:10;;;;;;;;;;;;;;;-142.75;100.00;76507.31;5034022;28;19932;-69
2022/06/12 08:56:02;;;;;;;;;;;;;;;-142.75;100.00;76491.56;5033717;28;19963;-66
2022/06/12 08:58:41;;;;;;;;;;;;;;;-142.75;100.00;76456.13;5030502;28;19917;-67
2022/06/12 09:01:07;;;;;;;;;;;;;;;-142.75;100.00;76501.41;5032414;28;19921;-68
2022/06/12 09:03:36;;;;;;;;;;;;;;;-142.75;100.00;76475.81;5032676;28;20298;-68
2022/06/12 09:06:25;;;;;;;;;;;;;;;-142.75;100.00;76487.63;5032317;28;20294;-65
2022/06/12 09:08:50;;;;;;;;;;;;;;;-142.75;100.00;76434.47;5032425;28;20008;-67
2022/06/12 09:11:15;;;;;;;;;;;;;;;-142.75;100.00;76426.59;5032397;28;20347;-66
2022/06/12 09:13:53;;;;;;;;;;;;;;;-142.75;100.00;76416.75;5031994;28;19940;-68
2022/06/12 09:16:26;;;;;;;;;;;;;;;-142.75;100.00;76391.16;5031247;28;19943;-67
2022/06/12 09:19:16;;;;;;;;;;;;;;;-142.75;100.00;76349.81;5031877;28;19917;-67
2022/06/12 09:21:49;;;;;;;;;;;;;;;-142.75;100.00;76334.09;5032244;28;19924;-67
2022/06/12 09:24:14;;;;;;;;;;;;;;;-142.75;100.00;76349.81;5032087;28;19925;-68
2022/06/12 09:26:58;;;;;;;;;;;;;;;-142.75;100.00;76353.78;5032251;28;20345;-67
2022/06/12 09:29:44;;;;;;;;;;;;;;;-142.75;100.00;76314.41;5031655;28;19925;-67
2022/06/12 09:32:09;;;;;;;;;;;;;;;-142.75;100.00;76282.91;5030031;28;19948;-68
2022/06/12 09:34:46;;;;;;;;;;;;;;;-142.75;99.09;76263.22;5032185;28;19918;-67
2022/06/12 09:40:32;;;;;;;;;;;;;;;-142.75;80.52;76245.50;5030935;28;19923;-67
2022/06/12 09:43:00;;;;;;;;;;;;;;;-142.75;75.00;76259.28;5031943;28;19917;-68
2022/06/12 09:45:44;;;;;;;;;;;;;;;-142.75;69.20;76282.91;5031428;28;19920;-67
2022/06/12 09:48:15;;;;;;;;;;;;;;;-142.75;71.30;76261.25;5031499;28;19917;-67
2022/06/12 09:50:43;;;;;;;;;;;;;;;-142.75;76.10;76257.31;5031319;28;19921;-67
2022/06/12 09:53:29;;;;;;;;;;;;;;;-142.75;73.18;76259.28;5031274;28;20297;-65
2022/06/12 09:55:58;;;;;;;;;;;;;;;-142.75;72.38;76237.63;5031677;28;19921;-67
2022/06/12 09:58:29;;;;;;;;;;;;;;;-142.75;68.78;76233.69;5031223;28;20289;-66
2022/06/12 10:00:54;;;;;;;;;;;;;;;-142.75;67.93;76251.41;5031437;28;20352;-66
2022/06/12 10:03:19;;;;;;;;;;;;;;;-142.75;68.91;76243.53;5031116;28;19916;-68
2022/06/12 10:05:44;;;;;;;;;;;;;;;-142.75;74.35;76227.78;5031475;28;19960;-68
2022/06/12 10:08:12;;;;;;;;;;;;;;;-142.75;69.63;76214.00;5031100;28;19939;-67
2022/06/12 10:10:40;;;;;;;;;;;;;;;-142.75;66.97;76255.34;5031523;28;19929;-66
2022/06/12 10:13:08;;;;;;;;;;;;;;;-142.75;71.47;76237.63;5031264;28;19924;-64
2022/06/12 10:15:37;;;;;;;;;;;;;;;-142.75;69.27;76208.09;5032954;28;20393;-65
2022/06/12 10:18:10;;;;;;;;;;;;;;;-142.75;70.55;76215.97;5030998;28;19921;-65
2022/06/12 10:20:39;;;;;;;;;;;;;;;-142.75;69.98;76208.09;5031079;28;19921;-66
2022/06/12 10:23:05;;;;;;;;;;;;;;;-142.75;73.82;76204.16;5031273;28;19917;-67
2022/06/12 10:25:33;;;;;;;;;;;;;;;-142.75;70.70;76214.00;5030730;28;19917;-67
2022/06/12 10:28:04;;;;;;;;;;;;;;;-142.75;75.60;76192.38;5031677;28;20016;-66
2022/06/12 10:30:40;;;;;;;;;;;;;;;-142.75;68.84;76202.19;5031670;28;19932;-67
2022/06/12 10:33:08;;;;;;;;;;;;;;;-142.75;73.00;76194.34;5031830;28;20390;-67
2022/06/12 10:35:44;;;;;;;;;;;;;;;-142.75;69.11;76180.56;5031487;28;20008;-67
2022/06/12 10:38:09;;;;;;;;;;;;;;;-142.75;70.70;76164.81;5031254;28;19917;-66
2022/06/12 10:40:35;;;;;;;;;;;;;;;-142.75;68.81;76131.34;5032235;28;19917;-67
2022/06/12 10:43:06;;;;;;;;;;;;;;;-142.75;70.44;76125.44;5030077;28;20297;-67
2022/06/12 10:45:33;;;;;;;;;;;;;;;-142.75;66.77;76168.75;5031109;28;20378;-67
2022/06/12 10:48:02;;;;;;;;;;;;;;;-142.75;67.63;76164.81;5031033;28;19917;-66
2022/06/12 10:50:35;;;;;;;;;;;;;;;-142.75;65.30;76158.91;5031385;28;20294;-67
2022/06/12 10:53:02;;;;;;;;;;;;;;;-142.75;63.68;76145.13;5031077;28;20011;-67
2022/06/12 10:55:48;;;;;;;;;;;;;;;-142.75;61.00;76212.03;5031213;28;19917;-65
2022/06/12 10:58:25;;;;;;;;;;;;;;;-142.75;65.32;76215.97;5029590;28;20286;-66
2022/06/12 11:00:52;;;;;;;;;;;;;;;-142.75;65.75;76196.31;5031352;28;19917;-66
2022/06/12 11:03:35;;;;;;;;;;;;;;;-142.75;64.73;76208.09;5031161;28;19917;-66
2022/06/12 11:06:04;;;;;;;;;;;;;;;-142.75;63.94;76219.91;5031044;28;20000;-66
2022/06/12 11:08:35;;;;;;;;;;;;;;;-142.75;62.58;76235.66;5030517;28;20742;-66
2022/06/12 11:11:25;;;;;;;;;;;;;;;-142.75;63.48;76208.09;5034995;28;19927;-66
2022/06/12 11:13:53;;;;;;;;;;;;;;;-142.75;64.72;76200.25;5048390;28;19955;-66
2022/06/12 11:16:18;;;;;;;;;;;;;;;-142.75;66.47;76170.72;5037331;28;19917;-67
2022/06/12 11:18:46;;;;;;;;;;;;;;;-142.75;64.49;76139.22;5030722;28;20477;-66
2022/06/12 11:21:11;;;;;;;;;;;;;;;-142.75;63.88;76153.00;5029635;28;20374;-66
2022/06/12 11:23:57;;;;;;;;;;;;;;;-142.75;64.22;76162.84;5028824;28;19991;-67
2022/06/12 11:26:41;;;;;;;;;;;;;;;-142.75;63.92;76192.38;5029999;28;19983;-66
2022/06/12 11:29:06;;;;;;;;;;;;;;;-142.75;63.32;76188.44;5042515;28;19979;-66
2022/06/12 11:31:40;;;;;;;;;;;;;;;-142.75;65.04;76172.69;5050898;28;19916;-67
2022/06/12 11:34:24;;;;;;;;;;;;;;;-142.75;65.18;76139.22;5050414;28;19964;-66
2022/06/12 11:37:25;;;;;;;;;;;;;;;-142.75;66.58;76172.69;5050624;28;20493;-66
2022/06/12 11:39:59;;;;;;;;;;;;;;;-142.75;65.24;76229.75;4989086;28;19956;-66
2022/06/12 11:42:24;;;;;;;;;;;;;;;-142.75;64.40;76257.31;5041137;28;19925;-67
2022/06/12 11:44:56;;;;;;;;;;;;;;;-142.75;60.66;76259.28;5035712;28;19925;-66
2022/06/12 11:47:37;;;;;;;;;;;;;;;-142.75;63.29;76202.19;5030203;28;20551;-66
2022/06/12 11:50:20;;;;;;;;;;;;;;;-142.75;63.51;76176.63;5029798;28;20235;-67
2022/06/12 11:52:48;;;;;;;;;;;;;;;-142.75;63.62;76162.84;5030462;28;19972;-66
2022/06/12 11:55:17;;;;;;;;;;;;;;;-142.75;62.80;76184.50;5030354;28;19917;-67
2022/06/12 11:58:02;;;;;;;;;;;;;;;-142.75;64.98;76200.25;5030146;28;19917;-65
2022/06/12 12:00:38;;;;;;;;;;;;;;;-142.75;64.40;76328.19;5028855;28;19971;-66
2022/06/12 12:03:23;;;;;;;;;;;;;;;-142.75;63.82;76408.88;5030642;28;20374;-66
2022/06/12 12:05:49;;;;;;;;;;;;;;;-142.75;67.03;76462.03;5034332;28;19921;-67
2022/06/12 12:08:14;;;;;;;;;;;;;;;-142.75;67.07;76479.75;5034135;28;20397;-68
2022/06/12 12:10:48;;;;;;;;;;;;;;;-142.75;70.40;76452.19;5034828;28;19921;-67
2022/06/12 12:13:18;;;;;;;;;;;;;;;-142.75;70.51;76430.53;5034585;28;19917;-66
2022/06/12 12:15:51;;;;;;;;;;;;;;;-142.75;70.59;76440.38;5034249;28;19917;-66
2022/06/12 12:18:35;;;;;;;;;;;;;;;-142.75;71.71;76414.78;5053097;28;19920;-67
2022/06/12 12:21:02;;;;;;;;;;;;;;;-142.75;68.43;76381.31;5039240;28;19925;-66
2022/06/12 12:23:28;;;;;;;;;;;;;;;-142.75;66.08;76361.63;5033688;28;20011;-67
2022/06/12 12:26:01;;;;;;;;;;;;;;;-142.75;67.72;76318.34;5041977;23;20020;-71
2022/06/12 12:28:39;;;;;;;;;;;;;;;-142.75;68.46;76290.78;5030955;28;19975;-70
2022/06/12 12:31:06;;;;;;;;;;;;;;;-142.75;64.84;76263.22;5032853;28;20016;-70
2022/06/12 12:33:33;;;;;;;;;;;;;;;-142.75;65.74;76263.22;5033293;28;19917;-70
2022/06/12 12:41:43;;;;;;;;;;;;;;;-142.75;61.52;76255.34;5033022;28;19924;-70
2022/06/12 12:44:10;;;;;;;;;;;;;;;-142.75;62.61;76243.53;5015546;28;20298;-70
2022/06/12 12:46:46;;;;;;;;;;;;;;;-142.75;62.34;76269.13;5033343;28;19963;-70
2022/06/12 12:49:32;;;;;;;;;;;;;;;-142.75;64.57;76247.47;5032371;28;19921;-70
2022/06/12 12:52:03;;;;;;;;;;;;;;;-142.75;63.95;76269.13;5005695;28;20085;-70